Time,TemperatureF,DewpointF,PressureIn,WindDirection,WindDirectionDegrees,WindSpeedMPH,WindSpeedGustMPH,Humidity,HourlyPrecipIn,Conditions,Clouds,dailyrainin,SoftwareType,DateUTC
2013-02-24 00:00:00,11.1,9.2,29.88,WSW,250,0.0,1.0,92,0.00,,,0.00,Wunderground v.1.15,2013-02-24 06:00:00,
2013-02-24 00:05:00,11.1,9.2,29.88,WSW,250,0.0,1.0,92,0.00,,,0.00,Wunderground v.1.15,2013-02-24 06:05:00,
2013-02-24 00:10:00,11.1,9.2,29.88,WSW,250,0.0,1.0,92,0.00,,,0.00,Wunderground v.1.15,2013-02-24 06:10:00,
2013-02-24 00:15:00,10.8,8.7,29.88,WSW,250,0.0,1.0,91,0.00,,,0.00,Wunderground v.1.15,2013-02-24 06:15:00,
2013-02-24 00:20:00,10.5,8.4,29.88,WSW,250,0.0,1.0,91,0.00,,,0.00,Wunderground v.1.15,2013-02-24 06:20:00,
2013-02-24 00:25:00,10.3,8.2,29.88,WSW,250,0.0,1.0,91,0.00,,,0.00,Wunderground v.1.15,2013-02-24 06:25:00,
2013-02-24 00:30:00,10.1,8.0,29.88,WSW,250,0.0,1.0,91,0.00,,,0.00,Wunderground v.1.15,2013-02-24 06:30:00,
2013-02-24 00:35:00,9.9,7.8,29.88,WSW,250,0.0,1.0,91,0.00,,,0.00,Wunderground v.1.15,2013-02-24 06:35:00,
2013-02-24 00:41:00,9.6,7.5,29.88,WSW,250,0.0,1.0,91,0.00,,,0.00,Wunderground v.1.15,2013-02-24 06:41:00,
2013-02-24 00:46:00,9.4,7.3,29.88,WSW,250,0.0,1.0,91,0.00,,,0.00,Wunderground v.1.15,2013-02-24 06:46:00,
2013-02-24 00:51:00,9.3,7.2,29.88,WSW,250,0.0,1.0,91,0.00,,,0.00,Wunderground v.1.15,2013-02-24 06:51:00,
2013-02-24 00:56:00,8.9,6.6,29.88,WSW,250,0.0,1.0,90,0.00,,,0.00,Wunderground v.1.15,2013-02-24 06:56:00,
2013-02-24 01:01:00,8.4,5.8,29.89,WSW,250,0.0,1.0,89,0.00,,,0.00,Wunderground v.1.15,2013-02-24 07:01:00,
2013-02-24 01:06:00,8.3,6.2,29.89,WSW,250,0.0,1.0,91,0.00,,,0.00,Wunderground v.1.15,2013-02-24 07:06:00,
2013-02-24 01:11:00,8.3,6.2,29.89,WSW,250,0.0,1.0,91,0.00,,,0.00,Wunderground v.1.15,2013-02-24 07:11:00,
2013-02-24 01:16:00,8.1,6.0,29.89,WSW,250,0.0,1.0,91,0.00,,,0.00,Wunderground v.1.15,2013-02-24 07:16:00,
2013-02-24 01:21:00,8.0,5.9,29.89,WSW,250,0.0,1.0,91,0.00,,,0.00,Wunderground v.1.15,2013-02-24 07:21:00,
2013-02-24 01:26:00,8.2,6.1,29.89,WSW,250,0.0,1.0,91,0.00,,,0.00,Wunderground v.1.15,2013-02-24 07:26:00,
2013-02-24 01:31:00,8.3,6.2,29.90,WSW,250,0.0,1.0,91,0.00,,,0.00,Wunderground v.1.15,2013-02-24 07:31:00,
2013-02-24 01:36:00,8.4,6.6,29.90,WSW,250,0.0,1.0,92,0.00,,,0.00,Wunderground v.1.15,2013-02-24 07:36:00,
2013-02-24 01:41:00,8.7,6.9,29.90,WSW,250,0.0,1.0,92,0.00,,,0.00,Wunderground v.1.15,2013-02-24 07:41:00,
2013-02-24 01:47:00,8.9,7.1,29.90,WSW,250,0.0,1.0,92,0.00,,,0.00,Wunderground v.1.15,2013-02-24 07:47:00,
2013-02-24 01:52:00,8.9,7.1,29.90,WSW,250,0.0,1.0,92,0.00,,,0.00,Wunderground v.1.15,2013-02-24 07:52:00,
2013-02-24 01:57:00,8.9,7.1,29.90,WSW,250,0.0,1.0,92,0.00,,,0.00,Wunderground v.1.15,2013-02-24 07:57:00,
2013-02-24 02:02:00,8.8,7.0,29.90,WSW,250,0.0,1.0,92,0.00,,,0.00,Wunderground v.1.15,2013-02-24 08:02:00,
2013-02-24 02:07:00,8.7,6.9,29.91,WSW,250,0.0,1.0,92,0.00,,,0.00,Wunderground v.1.15,2013-02-24 08:07:00,
2013-02-24 02:13:00,8.9,7.1,29.91,WSW,250,0.0,1.0,92,0.00,,,0.00,Wunderground v.1.15,2013-02-24 08:13:00,
2013-02-24 02:18:00,8.8,7.0,29.91,WSW,250,0.0,1.0,92,0.00,,,0.00,Wunderground v.1.15,2013-02-24 08:18:00,
2013-02-24 02:23:00,8.7,6.9,29.91,WSW,250,0.0,1.0,92,0.00,,,0.00,Wunderground v.1.15,2013-02-24 08:23:00,
2013-02-24 02:28:00,8.5,6.4,29.91,WSW,250,0.0,1.0,91,0.00,,,0.00,Wunderground v.1.15,2013-02-24 08:28:00,
2013-02-24 02:33:00,8.2,6.1,29.91,WSW,250,0.0,1.0,91,0.00,,,0.00,Wunderground v.1.15,2013-02-24 08:33:00,
2013-02-24 02:38:00,7.8,5.5,29.90,WSW,250,0.0,1.0,90,0.00,,,0.00,Wunderground v.1.15,2013-02-24 08:38:00,
2013-02-24 02:43:00,7.8,5.7,29.91,WSW,250,0.0,1.0,91,0.00,,,0.00,Wunderground v.1.15,2013-02-24 08:43:00,
2013-02-24 02:48:00,7.7,5.6,29.91,WSW,250,0.0,1.0,91,0.00,,,0.00,Wunderground v.1.15,2013-02-24 08:48:00,
2013-02-24 02:53:00,7.7,5.6,29.91,WSW,250,0.0,1.0,91,0.00,,,0.00,Wunderground v.1.15,2013-02-24 08:53:00,
2013-02-24 02:58:00,7.5,5.4,29.91,WSW,250,0.0,1.0,91,0.00,,,0.00,Wunderground v.1.15,2013-02-24 08:58:00,
2013-02-24 03:03:00,7.6,5.5,29.90,WSW,252,0.0,1.0,91,0.00,,,0.00,Wunderground v.1.15,2013-02-24 09:03:00,
2013-02-24 03:09:00,7.8,5.7,29.90,WSW,252,0.0,1.0,91,0.00,,,0.00,Wunderground v.1.15,2013-02-24 09:09:00,
2013-02-24 03:14:00,8.2,6.4,29.90,WSW,252,0.0,1.0,92,0.00,,,0.00,Wunderground v.1.15,2013-02-24 09:14:00,
2013-02-24 03:19:00,7.8,5.7,29.90,WSW,252,0.0,1.0,91,0.00,,,0.00,Wunderground v.1.15,2013-02-24 09:19:00,
2013-02-24 03:24:00,7.5,5.2,29.91,WSW,252,0.0,1.0,90,0.00,,,0.00,Wunderground v.1.15,2013-02-24 09:24:00,
2013-02-24 03:29:00,7.0,4.4,29.91,WSW,252,0.0,1.0,89,0.00,,,0.00,Wunderground v.1.15,2013-02-24 09:29:00,
2013-02-24 03:35:00,6.6,4.0,29.91,WSW,252,0.0,1.0,89,0.00,,,0.00,Wunderground v.1.15,2013-02-24 09:35:00,
2013-02-24 03:40:00,6.2,3.7,29.91,WSW,252,0.0,1.0,89,0.00,,,0.00,Wunderground v.1.15,2013-02-24 09:40:00,
2013-02-24 03:45:00,6.2,3.9,29.91,WSW,252,0.0,1.0,90,0.00,,,0.00,Wunderground v.1.15,2013-02-24 09:45:00,
2013-02-24 03:50:00,6.1,3.8,29.91,WSW,250,0.0,1.0,90,0.00,,,0.00,Wunderground v.1.15,2013-02-24 09:50:00,
2013-02-24 03:55:00,5.5,3.0,29.91,WSW,252,0.0,1.0,89,0.00,,,0.00,Wunderground v.1.15,2013-02-24 09:55:00,
2013-02-24 04:01:00,5.1,2.6,29.91,WSW,252,0.0,1.0,89,0.00,,,0.00,Wunderground v.1.15,2013-02-24 10:01:00,
2013-02-24 04:06:00,5.2,2.9,29.91,WSW,252,0.0,1.0,90,0.00,,,0.00,Wunderground v.1.15,2013-02-24 10:06:00,
2013-02-24 04:11:00,5.1,2.8,29.91,WSW,252,0.0,1.0,90,0.00,,,0.00,Wunderground v.1.15,2013-02-24 10:11:00,
2013-02-24 04:16:00,5.0,2.7,29.91,WSW,252,0.0,1.0,90,0.00,,,0.00,Wunderground v.1.15,2013-02-24 10:16:00,
2013-02-24 04:21:00,4.9,2.6,29.91,WSW,252,0.0,1.0,90,0.00,,,0.00,Wunderground v.1.15,2013-02-24 10:21:00,
2013-02-24 04:26:00,5.1,2.8,29.91,ENE,72,0.0,1.0,90,0.00,,,0.00,Wunderground v.1.15,2013-02-24 10:26:00,
2013-02-24 04:31:00,5.2,2.9,29.91,ENE,72,0.0,1.0,90,0.00,,,0.00,Wunderground v.1.15,2013-02-24 10:31:00,
2013-02-24 04:36:00,5.3,3.0,29.92,ENE,72,0.0,1.0,90,0.00,,,0.00,Wunderground v.1.15,2013-02-24 10:36:00,
2013-02-24 04:41:00,4.9,2.4,29.92,ENE,72,0.0,1.0,89,0.00,,,0.00,Wunderground v.1.15,2013-02-24 10:41:00,
2013-02-24 04:46:00,4.5,2.0,29.92,ENE,72,0.0,1.0,89,0.00,,,0.00,Wunderground v.1.15,2013-02-24 10:46:00,
2013-02-24 04:52:00,4.2,1.4,29.93,ENE,72,0.0,1.0,88,0.00,,,0.00,Wunderground v.1.15,2013-02-24 10:52:00,
2013-02-24 04:57:00,3.9,1.4,29.93,ENE,72,0.0,1.0,89,0.00,,,0.00,Wunderground v.1.15,2013-02-24 10:57:00,
2013-02-24 05:02:00,3.9,1.4,29.93,ENE,72,0.0,1.0,89,0.00,,,0.00,Wunderground v.1.15,2013-02-24 11:02:00,
2013-02-24 05:07:00,3.8,1.3,29.93,ENE,72,0.0,1.0,89,0.00,,,0.00,Wunderground v.1.15,2013-02-24 11:07:00,
2013-02-24 05:12:00,3.9,1.6,29.93,ENE,72,0.0,1.0,90,0.00,,,0.00,Wunderground v.1.15,2013-02-24 11:12:00,
2013-02-24 05:18:00,4.0,1.7,29.92,ENE,72,0.0,1.0,90,0.00,,,0.00,Wunderground v.1.15,2013-02-24 11:18:00,
2013-02-24 05:23:00,4.3,2.0,29.93,ENE,72,0.0,1.0,90,0.00,,,0.00,Wunderground v.1.15,2013-02-24 11:23:00,
2013-02-24 05:28:00,4.2,1.9,29.93,ENE,72,0.0,1.0,90,0.00,,,0.00,Wunderground v.1.15,2013-02-24 11:28:00,
2013-02-24 05:33:00,4.4,2.1,29.93,ENE,72,0.0,1.0,90,0.00,,,0.00,Wunderground v.1.15,2013-02-24 11:33:00,
2013-02-24 05:38:00,4.8,2.8,29.93,ENE,72,0.0,1.0,91,0.00,,,0.00,Wunderground v.1.15,2013-02-24 11:38:00,
2013-02-24 05:44:00,5.0,2.9,29.93,ENE,72,0.0,1.0,91,0.00,,,0.00,Wunderground v.1.15,2013-02-24 11:44:00,
2013-02-24 05:49:00,5.2,3.1,29.93,ENE,72,0.0,1.0,91,0.00,,,0.00,Wunderground v.1.15,2013-02-24 11:49:00,
2013-02-24 05:54:00,5.1,2.8,29.93,ENE,72,0.0,1.0,90,0.00,,,0.00,Wunderground v.1.15,2013-02-24 11:54:00,
2013-02-24 05:59:00,5.3,3.2,29.93,ENE,72,0.0,1.0,91,0.00,,,0.00,Wunderground v.1.15,2013-02-24 11:59:00,
2013-02-24 06:04:00,5.2,2.9,29.94,ENE,72,0.0,1.0,90,0.00,,,0.00,Wunderground v.1.15,2013-02-24 12:04:00,
2013-02-24 06:10:00,5.0,2.7,29.94,ENE,72,0.0,1.0,90,0.00,,,0.00,Wunderground v.1.15,2013-02-24 12:10:00,
2013-02-24 06:15:00,4.8,2.5,29.94,ENE,72,0.0,1.0,90,0.00,,,0.00,Wunderground v.1.15,2013-02-24 12:15:00,
2013-02-24 06:20:00,4.8,2.5,29.94,ENE,72,0.0,1.0,90,0.00,,,0.00,Wunderground v.1.15,2013-02-24 12:20:00,
2013-02-24 06:25:00,4.6,2.3,29.94,ENE,72,0.0,1.0,90,0.00,,,0.00,Wunderground v.1.15,2013-02-24 12:25:00,
2013-02-24 06:30:00,4.6,2.3,29.94,ENE,72,0.0,1.0,90,0.00,,,0.00,Wunderground v.1.15,2013-02-24 12:30:00,
2013-02-24 06:35:00,4.5,2.2,29.95,ENE,72,0.0,1.0,90,0.00,,,0.00,Wunderground v.1.15,2013-02-24 12:35:00,
2013-02-24 06:40:00,4.4,2.1,29.95,ENE,72,0.0,1.0,90,0.00,,,0.00,Wunderground v.1.15,2013-02-24 12:40:00,
2013-02-24 06:46:00,4.0,1.5,29.95,ENE,72,0.0,1.0,89,0.00,,,0.00,Wunderground v.1.15,2013-02-24 12:46:00,
2013-02-24 06:51:00,4.0,1.7,29.95,ENE,72,0.0,1.0,90,0.00,,,0.00,Wunderground v.1.15,2013-02-24 12:51:00,
2013-02-24 06:56:00,4.0,1.7,29.95,ENE,72,0.0,1.0,90,0.00,,,0.00,Wunderground v.1.15,2013-02-24 12:56:00,
2013-02-24 07:01:00,3.7,1.2,29.95,ENE,72,0.0,1.0,89,0.00,,,0.00,Wunderground v.1.15,2013-02-24 13:01:00,
2013-02-24 07:06:00,3.6,1.1,29.95,ENE,72,0.0,1.0,89,0.00,,,0.00,Wunderground v.1.15,2013-02-24 13:06:00,
2013-02-24 07:12:00,3.6,1.1,29.95,ENE,72,0.0,1.0,89,0.00,,,0.00,Wunderground v.1.15,2013-02-24 13:12:00,
2013-02-24 07:17:00,3.7,1.2,29.95,ENE,72,0.0,1.0,89,0.00,,,0.00,Wunderground v.1.15,2013-02-24 13:17:00,
2013-02-24 07:22:00,4.0,1.7,29.96,ENE,72,0.0,1.0,90,0.00,,,0.00,Wunderground v.1.15,2013-02-24 13:22:00,
2013-02-24 07:27:00,4.4,2.4,29.96,ENE,72,0.0,1.0,91,0.00,,,0.00,Wunderground v.1.15,2013-02-24 13:27:00,
2013-02-24 07:32:00,4.8,2.8,29.97,ENE,72,0.0,1.0,91,0.00,,,0.00,Wunderground v.1.15,2013-02-24 13:32:00,
2013-02-24 07:38:00,4.8,2.5,29.97,ENE,72,0.0,1.0,90,0.00,,,0.00,Wunderground v.1.15,2013-02-24 13:38:00,
2013-02-24 07:43:00,4.9,2.6,29.97,ENE,72,0.0,1.0,90,0.00,,,0.00,Wunderground v.1.15,2013-02-24 13:43:00,
2013-02-24 07:48:00,5.1,2.8,29.96,ENE,72,0.0,1.0,90,0.00,,,0.00,Wunderground v.1.15,2013-02-24 13:48:00,
2013-02-24 07:53:00,5.5,3.2,29.97,ENE,72,0.0,1.0,90,0.00,,,0.00,Wunderground v.1.15,2013-02-24 13:53:00,
2013-02-24 07:58:00,6.1,4.0,29.96,ENE,72,0.0,1.0,91,0.00,,,0.00,Wunderground v.1.15,2013-02-24 13:58:00,
2013-02-24 08:04:00,6.9,4.8,29.97,ENE,72,0.0,1.0,91,0.00,,,0.00,Wunderground v.1.15,2013-02-24 14:04:00,
2013-02-24 08:09:00,7.7,5.9,29.97,ENE,72,0.0,1.0,92,0.00,,,0.00,Wunderground v.1.15,2013-02-24 14:09:00,
2013-02-24 08:14:00,8.3,6.5,29.97,ENE,72,0.0,1.0,92,0.00,,,0.00,Wunderground v.1.15,2013-02-24 14:14:00,
2013-02-24 08:19:00,9.0,7.1,29.97,ENE,72,0.0,1.0,92,0.00,,,0.00,Wunderground v.1.15,2013-02-24 14:19:00,
2013-02-24 08:24:00,9.6,7.7,29.97,ENE,72,0.0,1.0,92,0.00,,,0.00,Wunderground v.1.15,2013-02-24 14:24:00,
2013-02-24 08:30:00,10.1,8.2,29.97,ENE,72,0.0,1.0,92,0.00,,,0.00,Wunderground v.1.15,2013-02-24 14:30:00,
2013-02-24 08:35:00,11.0,9.1,29.97,South,191,0.0,1.0,92,0.00,,,0.00,Wunderground v.1.15,2013-02-24 14:35:00,
2013-02-24 08:40:00,11.2,9.1,29.97,WSW,242,0.0,1.0,91,0.00,,,0.00,Wunderground v.1.15,2013-02-24 14:40:00,
2013-02-24 08:45:00,12.2,10.3,29.97,WSW,242,0.0,1.0,92,0.00,,,0.00,Wunderground v.1.15,2013-02-24 14:45:00,
2013-02-24 08:50:00,12.9,11.0,29.97,WSW,242,0.0,1.0,92,0.00,,,0.00,Wunderground v.1.15,2013-02-24 14:50:00,
2013-02-24 08:56:00,14.0,12.1,29.97,WSW,241,0.0,1.0,92,0.00,,,0.00,Wunderground v.1.15,2013-02-24 14:56:00,
2013-02-24 09:01:00,14.8,12.9,29.97,WSW,242,0.0,1.0,92,0.00,,,0.00,Wunderground v.1.15,2013-02-24 15:01:00,
2013-02-24 09:06:00,15.3,13.4,29.98,WSW,241,0.0,1.0,92,0.00,,,0.00,Wunderground v.1.15,2013-02-24 15:06:00,
2013-02-24 09:11:00,15.4,13.2,29.98,WSW,241,0.0,1.0,91,0.00,,,0.00,Wunderground v.1.15,2013-02-24 15:11:00,
2013-02-24 09:16:00,15.6,13.4,29.98,WSW,242,0.0,1.0,91,0.00,,,0.00,Wunderground v.1.15,2013-02-24 15:16:00,
2013-02-24 09:22:00,16.0,13.8,29.98,WSW,241,0.0,1.0,91,0.00,,,0.00,Wunderground v.1.15,2013-02-24 15:22:00,
2013-02-24 09:27:00,16.5,14.3,29.99,WSW,241,0.0,1.0,91,0.00,,,0.00,Wunderground v.1.15,2013-02-24 15:27:00,
2013-02-24 09:32:00,16.8,14.6,29.99,West,266,1.0,1.0,91,0.00,,,0.00,Wunderground v.1.15,2013-02-24 15:32:00,
2013-02-24 09:37:00,16.7,14.3,29.99,WSW,255,1.0,1.0,90,0.00,,,0.00,Wunderground v.1.15,2013-02-24 15:37:00,
2013-02-24 09:42:00,16.6,14.2,29.99,WSW,250,1.0,1.0,90,0.00,,,0.00,Wunderground v.1.15,2013-02-24 15:42:00,
2013-02-24 09:48:00,16.9,14.7,29.99,WSW,251,1.0,1.0,91,0.00,,,0.00,Wunderground v.1.15,2013-02-24 15:48:00,
2013-02-24 09:53:00,17.5,15.3,29.99,WSW,250,0.0,1.0,91,0.00,,,0.00,Wunderground v.1.15,2013-02-24 15:53:00,
2013-02-24 09:58:00,18.1,15.9,29.99,WSW,250,0.0,1.0,91,0.00,,,0.00,Wunderground v.1.15,2013-02-24 15:58:00,
2013-02-24 10:03:00,19.0,17.1,29.99,WSW,250,0.0,1.0,92,0.00,,,0.00,Wunderground v.1.15,2013-02-24 16:03:00,
2013-02-24 10:08:00,19.9,17.7,29.99,WSW,250,0.0,1.0,91,0.00,,,0.00,Wunderground v.1.15,2013-02-24 16:08:00,
2013-02-24 10:13:00,20.6,18.1,29.99,SSW,203,0.0,1.0,90,0.00,,,0.00,Wunderground v.1.15,2013-02-24 16:13:00,
2013-02-24 10:18:00,21.9,19.4,29.99,East,92,0.0,1.0,90,0.00,,,0.00,Wunderground v.1.15,2013-02-24 16:18:00,
2013-02-24 10:23:00,22.9,18.8,29.99,NNE,23,1.0,4.0,84,0.00,,,0.00,Wunderground v.1.15,2013-02-24 16:23:00,
2013-02-24 10:28:00,23.5,18.5,29.99,NNE,25,1.0,4.0,81,0.00,,,0.00,Wunderground v.1.15,2013-02-24 16:28:00,
2013-02-24 10:33:00,23.9,18.6,29.99,NNE,24,2.0,2.0,80,0.00,,,0.00,Wunderground v.1.15,2013-02-24 16:33:00,
2013-02-24 10:38:00,24.8,19.8,30.00,East,98,1.0,2.0,81,0.00,,,0.00,Wunderground v.1.15,2013-02-24 16:38:00,
2013-02-24 10:43:00,25.7,19.8,30.00,ESE,120,0.0,2.0,78,0.00,,,0.00,Wunderground v.1.15,2013-02-24 16:43:00,
2013-02-24 10:49:00,25.4,18.9,30.00,ENE,73,1.0,2.0,76,0.00,,,0.00,Wunderground v.1.15,2013-02-24 16:49:00,
2013-02-24 10:54:00,25.4,19.2,30.00,ENE,61,1.0,2.0,77,0.00,,,0.00,Wunderground v.1.15,2013-02-24 16:54:00,
2013-02-24 10:59:00,25.8,19.6,30.00,SE,143,0.0,2.0,77,0.00,,,0.00,Wunderground v.1.15,2013-02-24 16:59:00,
2013-02-24 11:04:00,26.4,19.9,30.00,ENE,73,0.0,2.0,76,0.00,,,0.00,Wunderground v.1.15,2013-02-24 17:04:00,
2013-02-24 11:09:00,26.6,19.7,30.00,ENE,73,1.0,2.0,75,0.00,,,0.00,Wunderground v.1.15,2013-02-24 17:09:00,
2013-02-24 11:15:00,27.0,19.8,30.00,NNE,13,1.0,2.0,74,0.00,,,0.00,Wunderground v.1.15,2013-02-24 17:15:00,
2013-02-24 11:20:00,27.1,19.9,30.00,NE,42,1.0,2.0,74,0.00,,,0.00,Wunderground v.1.15,2013-02-24 17:20:00,
2013-02-24 11:25:00,27.2,20.0,30.01,ENE,75,1.0,2.0,74,0.00,,,0.00,Wunderground v.1.15,2013-02-24 17:25:00,
2013-02-24 11:30:00,27.4,20.5,30.01,SE,143,1.0,1.0,75,0.00,,,0.00,Wunderground v.1.15,2013-02-24 17:30:00,
2013-02-24 11:35:00,28.3,21.1,30.01,West,266,0.0,2.0,74,0.00,,,0.00,Wunderground v.1.15,2013-02-24 17:35:00,
2013-02-24 11:41:00,28.9,21.3,30.01,SW,232,1.0,3.0,73,0.00,,,0.00,Wunderground v.1.15,2013-02-24 17:41:00,
2013-02-24 11:46:00,28.9,21.3,30.01,East,91,1.0,3.0,73,0.00,,,0.00,Wunderground v.1.15,2013-02-24 17:46:00,
2013-02-24 11:51:00,29.0,21.1,30.01,WSW,248,1.0,2.0,72,0.00,,,0.00,Wunderground v.1.15,2013-02-24 17:51:00,
2013-02-24 11:56:00,29.5,21.6,30.01,West,276,1.0,2.0,72,0.00,,,0.00,Wunderground v.1.15,2013-02-24 17:56:00,
2013-02-24 12:01:00,29.6,21.3,30.01,WSW,257,1.0,3.0,71,0.00,,,0.00,Wunderground v.1.15,2013-02-24 18:01:00,
2013-02-24 12:07:00,29.7,21.8,30.01,WSW,252,1.0,3.0,72,0.00,,,0.00,Wunderground v.1.15,2013-02-24 18:07:00,
2013-02-24 12:12:00,30.3,22.4,30.01,East,80,1.0,2.0,72,0.00,,,0.00,Wunderground v.1.15,2013-02-24 18:12:00,
2013-02-24 12:17:00,30.7,22.1,30.01,SW,233,1.0,2.0,70,0.00,,,0.00,Wunderground v.1.15,2013-02-24 18:17:00,
2013-02-24 12:22:00,31.2,22.2,30.01,West,281,0.0,1.0,69,0.00,,,0.00,Wunderground v.1.15,2013-02-24 18:22:00,
2013-02-24 12:27:00,31.5,22.1,30.01,West,263,0.0,3.0,68,0.00,,,0.00,Wunderground v.1.15,2013-02-24 18:27:00,
2013-02-24 12:33:00,31.4,22.4,30.00,ESE,103,1.0,2.0,69,0.00,,,0.00,Wunderground v.1.15,2013-02-24 18:33:00,
2013-02-24 12:38:00,31.6,22.2,30.00,NE,49,1.0,2.0,68,0.00,,,0.00,Wunderground v.1.15,2013-02-24 18:38:00,
2013-02-24 12:43:00,31.6,22.2,30.00,NW,322,1.0,1.0,68,0.00,,,0.00,Wunderground v.1.15,2013-02-24 18:43:00,
2013-02-24 12:48:00,31.2,21.9,30.00,East,87,1.0,2.0,68,0.00,,,0.00,Wunderground v.1.15,2013-02-24 18:48:00,
2013-02-24 12:53:00,31.0,21.7,30.00,ESE,115,1.0,3.0,68,0.00,,,0.00,Wunderground v.1.15,2013-02-24 18:53:00,
2013-02-24 12:59:00,31.5,22.1,30.00,ESE,110,1.0,3.0,68,0.00,,,0.00,Wunderground v.1.15,2013-02-24 18:59:00,
2013-02-24 13:04:00,31.6,21.9,30.00,SSW,200,1.0,1.0,67,0.00,,,0.00,Wunderground v.1.15,2013-02-24 19:04:00,
2013-02-24 13:09:00,31.9,21.8,30.00,WSW,252,1.0,1.0,66,0.00,,,0.00,Wunderground v.1.15,2013-02-24 19:09:00,
2013-02-24 13:14:00,32.0,21.9,30.00,North,355,1.0,4.0,66,0.00,,,0.00,Wunderground v.1.15,2013-02-24 19:14:00,
2013-02-24 13:19:00,32.3,22.2,30.00,East,91,1.0,4.0,66,0.00,,,0.00,Wunderground v.1.15,2013-02-24 19:19:00,
2013-02-24 13:25:00,32.5,22.4,30.00,ESE,120,1.0,1.0,66,0.00,,,0.00,Wunderground v.1.15,2013-02-24 19:25:00,
2013-02-24 13:30:00,33.2,22.3,29.99,NE,50,1.0,1.0,64,0.00,,,0.00,Wunderground v.1.15,2013-02-24 19:30:00,
2013-02-24 13:35:00,33.0,22.1,29.99,SW,218,1.0,2.0,64,0.00,,,0.00,Wunderground v.1.15,2013-02-24 19:35:00,
2013-02-24 13:40:00,33.1,22.2,29.99,West,259,1.0,2.0,64,0.00,,,0.00,Wunderground v.1.15,2013-02-24 19:40:00,
2013-02-24 13:45:00,33.1,22.2,29.99,NNE,31,1.0,2.0,64,0.00,,,0.00,Wunderground v.1.15,2013-02-24 19:45:00,
2013-02-24 13:51:00,33.5,22.6,29.99,East,87,1.0,1.0,64,0.00,,,0.00,Wunderground v.1.15,2013-02-24 19:51:00,
2013-02-24 13:56:00,33.6,22.3,29.99,NNW,328,1.0,2.0,63,0.00,,,0.00,Wunderground v.1.15,2013-02-24 19:56:00,
2013-02-24 14:01:00,34.4,23.5,29.99,ENE,71,1.0,1.0,64,0.00,,,0.00,Wunderground v.1.15,2013-02-24 20:01:00,
2013-02-24 14:06:00,34.4,22.7,29.99,NW,319,1.0,2.0,62,0.00,,,0.00,Wunderground v.1.15,2013-02-24 20:06:00,
2013-02-24 14:11:00,34.5,22.8,29.99,SW,214,1.0,1.0,62,0.00,,,0.00,Wunderground v.1.15,2013-02-24 20:11:00,
2013-02-24 14:16:00,34.9,22.8,29.98,NE,49,0.0,3.0,61,0.00,,,0.00,Wunderground v.1.15,2013-02-24 20:16:00,
2013-02-24 14:21:00,34.8,22.7,29.98,ENE,67,1.0,2.0,61,0.00,,,0.00,Wunderground v.1.15,2013-02-24 20:21:00,
2013-02-24 14:26:00,34.7,22.2,29.98,SSE,148,1.0,2.0,60,0.00,,,0.01,Wunderground v.1.15,2013-02-24 20:26:00,
2013-02-24 14:31:00,34.3,22.6,29.98,SW,218,1.0,1.0,62,0.00,,,0.01,Wunderground v.1.15,2013-02-24 20:31:00,
2013-02-24 14:36:00,34.0,22.7,29.98,West,277,1.0,2.0,63,0.00,,,0.01,Wunderground v.1.15,2013-02-24 20:36:00,
2013-02-24 14:41:00,34.0,22.3,29.98,East,79,1.0,3.0,62,0.00,,,0.01,Wunderground v.1.15,2013-02-24 20:41:00,
2013-02-24 14:47:00,33.7,22.1,29.98,WSW,243,1.0,3.0,62,0.00,,,0.01,Wunderground v.1.15,2013-02-24 20:47:00,
2013-02-24 14:52:00,33.3,22.8,29.98,SE,140,1.0,1.0,65,0.00,,,0.01,Wunderground v.1.15,2013-02-24 20:52:00,
2013-02-24 14:57:00,33.6,23.1,29.98,WSW,256,1.0,1.0,65,0.00,,,0.01,Wunderground v.1.15,2013-02-24 20:57:00,
2013-02-24 15:02:00,33.9,22.2,29.98,ESE,117,1.0,1.0,62,0.00,,,0.01,Wunderground v.1.15,2013-02-24 21:02:00,
2013-02-24 15:07:00,33.8,22.1,29.98,North,6,1.0,2.0,62,0.00,,,0.01,Wunderground v.1.15,2013-02-24 21:07:00,
2013-02-24 15:13:00,33.6,22.0,29.98,East,82,1.0,2.0,62,0.00,,,0.01,Wunderground v.1.15,2013-02-24 21:13:00,
2013-02-24 15:18:00,33.4,22.1,29.98,SE,136,2.0,2.0,63,0.00,,,0.01,Wunderground v.1.15,2013-02-24 21:18:00,
2013-02-24 15:23:00,33.0,22.5,29.98,East,92,1.0,2.0,65,0.00,,,0.01,Wunderground v.1.15,2013-02-24 21:23:00,
2013-02-24 15:28:00,32.7,22.2,29.98,NE,46,1.0,3.0,65,0.00,,,0.01,Wunderground v.1.15,2013-02-24 21:28:00,
2013-02-24 15:33:00,32.5,22.0,29.98,East,87,1.0,2.0,65,0.00,,,0.01,Wunderground v.1.15,2013-02-24 21:33:00,
2013-02-24 15:39:00,32.5,22.0,29.98,ENE,71,1.0,2.0,65,0.00,,,0.01,Wunderground v.1.15,2013-02-24 21:39:00,
2013-02-24 15:44:00,32.4,22.3,29.98,WSW,255,1.0,1.0,66,0.00,,,0.01,Wunderground v.1.15,2013-02-24 21:44:00,
2013-02-24 15:49:00,32.8,22.7,29.98,WSW,248,1.0,2.0,66,0.00,,,0.01,Wunderground v.1.15,2013-02-24 21:49:00,
2013-02-24 15:54:00,32.8,22.3,29.97,ENE,69,1.0,2.0,65,0.00,,,0.01,Wunderground v.1.15,2013-02-24 21:54:00,
2013-02-24 15:59:00,32.4,21.9,29.97,ENE,61,1.0,3.0,65,0.00,,,0.01,Wunderground v.1.15,2013-02-24 21:59:00,
2013-02-24 16:05:00,32.4,22.3,29.97,ENE,77,2.0,2.0,66,0.00,,,0.01,Wunderground v.1.15,2013-02-24 22:05:00,
2013-02-24 16:10:00,32.9,22.8,29.97,SSE,149,1.0,1.0,66,0.00,,,0.01,Wunderground v.1.15,2013-02-24 22:10:00,
2013-02-24 16:15:00,33.4,23.3,29.97,East,79,0.0,2.0,66,0.00,,,0.01,Wunderground v.1.15,2013-02-24 22:15:00,
2013-02-24 16:20:00,33.5,23.0,29.97,ENE,64,1.0,1.0,65,0.00,,,0.01,Wunderground v.1.15,2013-02-24 22:20:00,
2013-02-24 16:25:00,33.4,22.1,29.97,NE,53,1.0,3.0,63,0.00,,,0.01,Wunderground v.1.15,2013-02-24 22:25:00,
2013-02-24 16:31:00,33.4,22.9,29.97,SE,131,1.0,1.0,65,0.00,,,0.01,Wunderground v.1.15,2013-02-24 22:31:00,
2013-02-24 16:36:00,33.3,22.4,29.97,East,94,0.0,2.0,64,0.00,,,0.01,Wunderground v.1.15,2013-02-24 22:36:00,
2013-02-24 16:41:00,33.2,22.0,29.97,ENE,63,0.0,1.0,63,0.00,,,0.01,Wunderground v.1.15,2013-02-24 22:41:00,
2013-02-24 16:46:00,32.7,21.9,29.97,NNE,20,0.0,3.0,64,0.00,,,0.01,Wunderground v.1.15,2013-02-24 22:46:00,
2013-02-24 16:51:00,32.5,22.0,29.97,SE,135,0.0,1.0,65,0.00,,,0.01,Wunderground v.1.15,2013-02-24 22:51:00,
2013-02-24 16:57:00,32.1,21.7,29.97,ESE,117,0.0,1.0,65,0.00,,,0.01,Wunderground v.1.15,2013-02-24 22:57:00,
2013-02-24 17:02:00,31.7,21.3,29.97,East,90,0.0,1.0,65,0.00,,,0.01,Wunderground v.1.15,2013-02-24 23:02:00,
2013-02-24 17:07:00,31.4,21.3,29.97,SE,131,0.0,1.0,66,0.00,,,0.01,Wunderground v.1.15,2013-02-24 23:07:00,
2013-02-24 17:12:00,31.2,21.5,29.97,NNW,331,0.0,1.0,67,0.00,,,0.01,Wunderground v.1.15,2013-02-24 23:12:00,
2013-02-24 17:17:00,30.8,21.1,29.97,NE,35,0.0,1.0,67,0.00,,,0.01,Wunderground v.1.15,2013-02-24 23:17:00,
2013-02-24 17:23:00,30.4,21.1,29.97,NE,36,0.0,1.0,68,0.00,,,0.01,Wunderground v.1.15,2013-02-24 23:23:00,
2013-02-24 17:28:00,30.0,21.1,29.98,NE,35,0.0,1.0,69,0.00,,,0.01,Wunderground v.1.15,2013-02-24 23:28:00,
2013-02-24 17:33:00,29.5,20.9,29.98,NE,35,0.0,1.0,70,0.00,,,0.01,Wunderground v.1.15,2013-02-24 23:33:00,
2013-02-24 17:38:00,29.1,20.5,29.98,NE,34,0.0,1.0,70,0.00,,,0.01,Wunderground v.1.15,2013-02-24 23:38:00,
2013-02-24 17:43:00,28.7,20.5,29.98,NE,36,0.0,1.0,71,0.00,,,0.01,Wunderground v.1.15,2013-02-24 23:43:00,
2013-02-24 17:49:00,28.3,20.4,29.98,NE,35,0.0,1.0,72,0.00,,,0.01,Wunderground v.1.15,2013-02-24 23:49:00,
2013-02-24 17:54:00,27.8,20.6,29.98,ENE,63,0.0,1.0,74,0.00,,,0.01,Wunderground v.1.15,2013-02-24 23:54:00,
2013-02-24 17:59:00,27.4,20.2,29.98,ENE,62,0.0,1.0,74,0.00,,,0.01,Wunderground v.1.15,2013-02-24 23:59:00,
2013-02-24 18:04:00,27.1,20.2,29.98,ENE,62,0.0,1.0,75,0.00,,,0.01,Wunderground v.1.15,2013-02-25 00:04:00,
2013-02-24 18:09:00,26.9,20.0,29.98,ENE,62,0.0,1.0,75,0.00,,,0.01,Wunderground v.1.15,2013-02-25 00:09:00,
2013-02-24 18:15:00,26.3,19.8,29.98,ENE,62,0.0,1.0,76,0.00,,,0.01,Wunderground v.1.15,2013-02-25 00:15:00,
2013-02-24 18:20:00,25.9,19.4,29.99,ENE,63,0.0,1.0,76,0.00,,,0.01,Wunderground v.1.15,2013-02-25 00:20:00,
2013-02-24 18:25:00,25.5,19.6,29.99,ENE,62,0.0,1.0,78,0.00,,,0.01,Wunderground v.1.15,2013-02-25 00:25:00,
2013-02-24 18:30:00,25.0,19.1,29.99,ENE,62,0.0,1.0,78,0.00,,,0.01,Wunderground v.1.15,2013-02-25 00:30:00,
2013-02-24 18:35:00,24.7,19.1,29.99,ENE,62,0.0,1.0,79,0.00,,,0.01,Wunderground v.1.15,2013-02-25 00:35:00,
2013-02-24 18:40:00,24.4,18.8,29.99,ENE,62,0.0,1.0,79,0.00,,,0.01,Wunderground v.1.15,2013-02-25 00:40:00,
2013-02-24 18:45:00,24.1,18.8,29.99,ENE,63,0.0,1.0,80,0.00,,,0.01,Wunderground v.1.15,2013-02-25 00:45:00,
2013-02-24 18:50:00,23.9,18.9,29.99,ENE,62,0.0,1.0,81,0.00,,,0.01,Wunderground v.1.15,2013-02-25 00:50:00,
2013-02-24 18:55:00,23.6,18.6,30.00,ENE,63,0.0,1.0,81,0.00,,,0.01,Wunderground v.1.15,2013-02-25 00:55:00,
2013-02-24 19:00:00,23.4,18.4,30.00,ENE,62,0.0,1.0,81,0.00,,,0.01,Wunderground v.1.15,2013-02-25 01:00:00,
2013-02-24 19:06:00,23.1,18.4,30.00,ENE,62,0.0,1.0,82,0.00,,,0.01,Wunderground v.1.15,2013-02-25 01:06:00,
2013-02-24 19:11:00,22.9,18.2,30.00,ENE,63,0.0,1.0,82,0.00,,,0.01,Wunderground v.1.15,2013-02-25 01:11:00,
2013-02-24 19:16:00,22.9,18.5,30.00,ENE,62,0.0,1.0,83,0.00,,,0.01,Wunderground v.1.15,2013-02-25 01:16:00,
2013-02-24 19:21:00,22.9,18.5,29.99,ENE,62,0.0,1.0,83,0.00,,,0.01,Wunderground v.1.15,2013-02-25 01:21:00,
2013-02-24 19:26:00,22.9,18.5,29.99,ENE,72,0.0,1.0,83,0.00,,,0.01,Wunderground v.1.15,2013-02-25 01:26:00,
2013-02-24 19:31:00,23.0,18.6,29.99,East,101,0.0,1.0,83,0.00,,,0.01,Wunderground v.1.15,2013-02-25 01:31:00,
2013-02-24 19:36:00,23.1,18.7,29.99,East,101,0.0,1.0,83,0.00,,,0.01,Wunderground v.1.15,2013-02-25 01:36:00,
2013-02-24 19:42:00,22.8,18.4,30.00,NNE,30,0.0,1.0,83,0.00,,,0.01,Wunderground v.1.15,2013-02-25 01:42:00,
2013-02-24 19:47:00,22.6,18.2,29.99,NE,55,0.0,1.0,83,0.00,,,0.01,Wunderground v.1.15,2013-02-25 01:47:00,
2013-02-24 19:52:00,22.5,18.4,29.99,NE,55,0.0,1.0,84,0.00,,,0.01,Wunderground v.1.15,2013-02-25 01:52:00,
2013-02-24 19:57:00,22.4,18.3,29.99,NE,55,0.0,1.0,84,0.00,,,0.01,Wunderground v.1.15,2013-02-25 01:57:00,
2013-02-24 20:02:00,22.3,18.2,29.99,NE,55,0.0,1.0,84,0.00,,,0.01,Wunderground v.1.15,2013-02-25 02:02:00,
2013-02-24 20:08:00,22.1,18.0,29.99,NE,55,0.0,1.0,84,0.00,,,0.01,Wunderground v.1.15,2013-02-25 02:08:00,
2013-02-24 20:13:00,22.0,17.9,29.99,NE,56,0.0,1.0,84,0.00,,,0.01,Wunderground v.1.15,2013-02-25 02:13:00,
2013-02-24 20:18:00,22.1,18.3,29.99,NE,55,0.0,1.0,85,0.00,,,0.01,Wunderground v.1.15,2013-02-25 02:18:00,
2013-02-24 20:23:00,22.1,18.0,29.99,NE,55,0.0,1.0,84,0.00,,,0.01,Wunderground v.1.15,2013-02-25 02:23:00,
2013-02-24 20:28:00,22.1,18.3,29.99,NE,55,0.0,1.0,85,0.00,,,0.01,Wunderground v.1.15,2013-02-25 02:28:00,
2013-02-24 20:34:00,22.2,18.1,29.99,NE,56,0.0,1.0,84,0.00,,,0.01,Wunderground v.1.15,2013-02-25 02:34:00,
2013-02-24 20:39:00,22.2,18.4,30.00,NE,56,0.0,1.0,85,0.00,,,0.01,Wunderground v.1.15,2013-02-25 02:39:00,
2013-02-24 20:44:00,22.2,18.4,30.00,NE,55,0.0,1.0,85,0.00,,,0.01,Wunderground v.1.15,2013-02-25 02:44:00,
2013-02-24 20:49:00,22.3,18.5,30.00,NE,55,0.0,1.0,85,0.00,,,0.01,Wunderground v.1.15,2013-02-25 02:49:00,
2013-02-24 20:54:00,22.5,18.7,30.00,NE,55,0.0,1.0,85,0.00,,,0.01,Wunderground v.1.15,2013-02-25 02:54:00,
2013-02-24 20:59:00,22.7,19.1,30.00,NE,55,0.0,1.0,86,0.00,,,0.01,Wunderground v.1.15,2013-02-25 02:59:00,
2013-02-24 21:04:00,23.0,19.2,30.00,NE,55,0.0,1.0,85,0.00,,,0.01,Wunderground v.1.15,2013-02-25 03:04:00,
2013-02-24 21:09:00,23.2,19.4,30.00,NE,55,0.0,1.0,85,0.00,,,0.01,Wunderground v.1.15,2013-02-25 03:09:00,
2013-02-24 21:15:00,23.3,19.2,30.00,NE,56,0.0,1.0,84,0.00,,,0.01,Wunderground v.1.15,2013-02-25 03:15:00,
2013-02-24 21:20:00,23.4,19.6,30.00,NE,55,0.0,1.0,85,0.00,,,0.01,Wunderground v.1.15,2013-02-25 03:20:00,
2013-02-24 21:25:00,23.6,19.8,30.00,NE,55,0.0,1.0,85,0.00,,,0.01,Wunderground v.1.15,2013-02-25 03:25:00,
2013-02-24 21:30:00,23.7,19.9,30.00,NE,56,0.0,1.0,85,0.00,,,0.01,Wunderground v.1.15,2013-02-25 03:30:00,
2013-02-24 21:35:00,23.8,19.9,30.00,NE,55,0.0,1.0,85,0.00,,,0.01,Wunderground v.1.15,2013-02-25 03:35:00,
2013-02-24 21:40:00,24.0,20.1,30.00,NE,55,0.0,1.0,85,0.00,,,0.01,Wunderground v.1.15,2013-02-25 03:40:00,
2013-02-24 21:45:00,24.1,20.2,30.00,NE,55,0.0,1.0,85,0.00,,,0.01,Wunderground v.1.15,2013-02-25 03:45:00,
2013-02-24 21:50:00,24.2,20.3,30.00,NE,55,0.0,1.0,85,0.00,,,0.01,Wunderground v.1.15,2013-02-25 03:50:00,
2013-02-24 21:56:00,24.4,20.5,30.01,SSW,198,0.0,1.0,85,0.00,,,0.01,Wunderground v.1.15,2013-02-25 03:56:00,
2013-02-24 22:01:00,24.6,20.7,30.01,SSW,198,0.0,1.0,85,0.00,,,0.01,Wunderground v.1.15,2013-02-25 04:01:00,
2013-02-24 22:06:00,24.7,20.6,30.01,SSW,198,0.0,1.0,84,0.00,,,0.01,Wunderground v.1.15,2013-02-25 04:06:00,
2013-02-24 22:11:00,24.8,20.7,30.01,SSW,198,0.0,1.0,84,0.00,,,0.01,Wunderground v.1.15,2013-02-25 04:11:00,
2013-02-24 22:16:00,24.9,20.5,30.01,SSW,198,0.0,1.0,83,0.00,,,0.01,Wunderground v.1.15,2013-02-25 04:16:00,
2013-02-24 22:22:00,25.0,20.6,30.01,SSW,198,0.0,1.0,83,0.00,,,0.01,Wunderground v.1.15,2013-02-25 04:22:00,
2013-02-24 22:27:00,25.1,20.7,30.01,SSW,198,0.0,1.0,83,0.00,,,0.01,Wunderground v.1.15,2013-02-25 04:27:00,
2013-02-24 22:32:00,25.2,20.8,30.01,SSW,198,0.0,1.0,83,0.00,,,0.01,Wunderground v.1.15,2013-02-25 04:32:00,
2013-02-24 22:37:00,25.2,20.8,30.01,SSW,198,0.0,1.0,83,0.00,,,0.01,Wunderground v.1.15,2013-02-25 04:37:00,
2013-02-24 22:42:00,25.3,20.6,30.01,SSW,200,0.0,1.0,82,0.00,,,0.01,Wunderground v.1.15,2013-02-25 04:42:00,
2013-02-24 22:48:00,25.5,20.8,30.01,SSW,200,0.0,1.0,82,0.00,,,0.01,Wunderground v.1.15,2013-02-25 04:48:00,
2013-02-24 22:53:00,25.6,20.6,30.01,SSW,200,0.0,1.0,81,0.00,,,0.01,Wunderground v.1.15,2013-02-25 04:53:00,
2013-02-24 22:58:00,25.7,20.7,30.01,SSW,200,0.0,1.0,81,0.00,,,0.01,Wunderground v.1.15,2013-02-25 04:58:00,
2013-02-24 23:00:00,25.7,21.0,30.01,SSW,200,0.0,1.0,82,0.00,,,0.01,Wunderground v.1.15,2013-02-25 05:00:00,
2013-02-24 23:02:00,25.7,21.0,30.01,SSW,200,0.0,1.0,82,0.00,,,0.01,Wunderground v.1.15,2013-02-25 05:02:00,
2013-02-24 23:03:00,25.8,21.1,30.01,SSW,200,0.0,1.0,82,0.00,,,0.01,Wunderground v.1.15,2013-02-25 05:03:00,
2013-02-24 23:08:00,25.8,20.8,30.01,SSW,200,0.0,1.0,81,0.00,,,0.01,Wunderground v.1.15,2013-02-25 05:08:00,
2013-02-24 23:09:00,25.8,21.1,30.01,SSW,200,0.0,1.0,82,0.00,,,0.01,Wunderground v.1.15,2013-02-25 05:09:00,
2013-02-24 23:14:00,25.9,20.9,30.01,SSW,200,0.0,1.0,81,0.00,,,0.01,Wunderground v.1.15,2013-02-25 05:14:00,
2013-02-24 23:19:00,25.9,21.2,30.01,SSW,200,0.0,1.0,82,0.00,,,0.01,Wunderground v.1.15,2013-02-25 05:19:00,
2013-02-24 23:24:00,25.9,21.2,30.01,SSW,200,0.0,1.0,82,0.00,,,0.01,Wunderground v.1.15,2013-02-25 05:24:00,
2013-02-24 23:29:00,25.9,21.2,30.01,SSW,200,0.0,1.0,82,0.00,,,0.01,Wunderground v.1.15,2013-02-25 05:29:00,
2013-02-24 23:34:00,25.9,21.2,30.01,SSW,200,0.0,1.0,82,0.00,,,0.01,Wunderground v.1.15,2013-02-25 05:34:00,
2013-02-24 23:40:00,25.9,20.9,30.01,SSW,200,0.0,1.0,81,0.00,,,0.01,Wunderground v.1.15,2013-02-25 05:40:00,
2013-02-24 23:45:00,25.9,20.9,30.01,SSW,200,0.0,1.0,81,0.00,,,0.01,Wunderground v.1.15,2013-02-25 05:45:00,
2013-02-24 23:50:00,25.9,20.9,30.01,SSW,200,0.0,1.0,81,0.00,,,0.01,Wunderground v.1.15,2013-02-25 05:50:00,
2013-02-24 23:55:00,25.8,21.1,30.01,SSW,200,0.0,1.0,82,0.00,,,0.01,Wunderground v.1.15,2013-02-25 05:55:00,